BLUO2: Blue River, Blue, OK

Data processed at Fri May 24 2019 23:50


All information presented herein is the property of the government of the United States of America and may be revised or deleted at any time without prior notice.
Dissemination of this information without the expressed written consent of the Public Affairs Office, Tulsa District U.S. Army Corps of Engineers is strictly prohibited.
These data are gathered electronically and, as presented, have not undergone any form of quality control. These data are not guaranteed to be valid or correct.
Go to home page.
Go to station list.
Go to home page.

Downstream station:


Previous Day
Next Day
Current Day
    
SHEF ID:       BLUO2     Blue River near Blue, OK
STATION TYPE:  
Regulating: Stage =    21.00, Flow =     4372

               PRECIP     STAGE  RIV-FLOW  BAT-LOAD
                   in        ft       cfs      volt
              Ccp-Rev   Ccp-Rev   Ccp-Rev   Ccp-Rev
(US/Central)
05/24 00:00      0.00      9.57       649     12.73
05/24 01:00      0.00      9.53       640     12.65
05/24 02:00      0.00      9.49       631     12.65
05/24 03:00      0.00      9.46       625     12.65
05/24 04:00      0.00      9.41       614     12.65
05/24 05:00      0.00      9.38       607     12.65
05/24 06:00      0.00      9.33       597     12.65
05/24 07:00      0.00      9.31       592     12.65
05/24 08:00      0.00      9.28       586     12.73
05/24 09:00      0.00      9.26       581     13.05
05/24 10:00      0.00      9.22       573     13.29
05/24 11:00      0.00      9.21       570     13.29
05/24 12:00      0.00      9.17       562     13.29
05/24 13:00      0.00      9.14       555     13.21
05/24 14:00      0.00      9.12       551     13.05
05/24 15:00      0.00      9.10       547     13.05
05/24 16:00      0.00      9.08       542     13.05
05/24 17:00      0.00      9.03       532     13.05
05/24 18:00      0.00      9.03       532     13.05
05/24 19:00      0.00      9.01       528     13.05
05/24 20:00      0.00      8.99       523     12.97
05/24 21:00      0.00      8.96       517     12.73
05/24 22:00      0.00      8.94       513     12.73
05/24 23:00      0.00      8.92       509     12.73